Elmaton, TX (77440)

4:10 PM CDT on August 23, 2016 (GMT -0500)
Oxea Chemicals | | Change Station

Elev 66 ft 28.86 °N, 96.02 °W | Updated 8 seconds ago

Partly Cloudy
Partly Cloudy
89.7 °F
Feels Like 102 °F
N
7.1
Wind Variable Wind from SW
Gusts 9.2 mph

Today
High -- | Low -- °F
--% Chance of Precip.
Yesterday
High -- | Low -- °F
Precip. -- in
Pressure 30.11 in
Visibility 10.0 miles
Clouds Few 2200 ft
Heat Index 102 °F
Dew Point 76 °F
Humidity 65%
Rainfall 0.00 in
Snow Depth Not available.
6:58 AM 7:55 PM
Waning Gibbous, 64% visible
METAR KPSX 232053Z AUTO 18009KT 10SM FEW022 32/25 A3011 RMK AO2 SLP194 T03220250 58014
Pressure 30.11 in
Visibility 10.0 miles
Clouds Few 2200 ft
Heat Index 102 °F
Dew Point 76 °F
Humidity 65%
Rainfall 0.00 in
Snow Depth Not available.
6:58 AM 7:55 PM
Waning Gibbous, 64% visible
METAR KPSX 232053Z AUTO 18009KT 10SM FEW022 32/25 A3011 RMK AO2 SLP194 T03220250 58014

10-Day Weather Forecast

Almanac

Astronomy

Aug. 23, 2016 Rise Set
Actual Time
Civil Twilight
Nautical Twilight
Astronomical Twilight
Moon
Length of Visible Light
Length of Day
Tomorrow will be .
, % of the Moon is Illuminated

Today's Extremes

State Highs State Lows

Community

WunderPhotos

Upload Photos

1,934,455 photos uploaded!

WunderBlog® & News

Nearby

Air Quality

  Air Quality AQ Index Pollutant
Not available.

Snow Depth

Station Depth Elevation

Earthquake Activity

City Distance Mag. Time & Date
Minimum magnitude displayed is 2.5.

Coastal Water Temperatures

Place Temperature

Stations

Nearby Weather Stations

Station Location Temp. Windchill Dew Point Humidity Wind Precip. Elev Updated Type
                   

Watches & Warnings

There are currently no watches in effect.